Decoded Metar for PABI (DELTA JUNCTION in AK, USA) (IATA:BIG) | Meteo·Mobile Aviation Weather
aviador You're here:

PABI Decoded Metar

DELTA JUNCTION in AK, USA
Report Time2018-10-21 14:53:00
UTC Time2018-10-21 15:38:35
Flight Rules vfr VFR
Wind120° at 18 Gusting to 24 kt
W.Decomp.*RWY 10: 18.0 kt HW 0.9 kt LCW
RWY 07: 16.0 kt HW 8.2 kt RCW
RWY 01: 0.9 kt HW 18.0 kt RCW
W.Rank120° ranks 3
Current wind is above 120° avg. (10.0)
Visibility9999 m
Phenomena:N/A
Clouds:Few 080 Hf
Scattered 110 Hf
Broken 200 Hf
Expected CloudBase > 1,600 ft AGL from Temp-Dew spread
Ceiling20,000 ft
Temp03°C (ISA -9)
Dew Point-1°C (75% RH)
AAT-5.6°C
QNH999 hPa
Density Alt679 ft
Elevation1,266 ft
Report Wrong Elevation
Raw Report
PABI 211453Z 12018G24KT 10SM FEW080 SCT110 BKN200 03/M01 A2949=

Extra information for PABI:More info

Metar Taf Metar & Taf Last 4 Metars F.Rules Stats Wind Profile Meteogram Temp Stats Airport Information Weather charts Add Link Nearby VenuesMetar ALERT Operation Metar Decoded Social comments

AIRNAV info for PABI